Vingaren — OZ2131 — position and weather

sailwx.info

Track history (hours):
 
Tides and Currents Weather Stations Pressure Air Temp Water Temp Dewpoint Dewpoint Depression Visibility Wind Speed Wind Dir Waves Ship Positions

Vingaren

Last reported at 2016-Aug-30 10:31 UTC. Time now 2016-Aug-30 10:54 UTC.
Position N 58°36' E 016°13'.

Length 89 m; draft 6.3 m.

Type: Cargo ship. MMSI: 231844000.

Date/timePositionNaut miles runAvg speedWind from/ knotsBaromVisibWave heightAir tempDewpointWater temp
2016-Aug-30 10:31N 58°36' E 016°13'0 0.0
2016-Aug-30 09:31N 58°36' E 016°13'0 0.0
2016-Aug-30 08:31N 58°36' E 016°13'0 0.0
2016-Aug-30 07:31N 58°36' E 016°13'0 0.0
2016-Aug-30 06:31N 58°36' E 016°13'0 0.0
2016-Aug-30 05:31N 58°36' E 016°13'0 0.0
2016-Aug-30 04:31N 58°36' E 016°13'0 0.0
2016-Aug-30 03:31N 58°36' E 016°13'0 0.0
2016-Aug-30 02:31N 58°36' E 016°13'0 0.0
2016-Aug-30 01:31N 58°36' E 016°13'0 0.0
2016-Aug-30 00:31N 58°36' E 016°13'0 0.0
2016-Aug-29 23:31N 58°36' E 016°13'0 0.0
2016-Aug-29 22:31N 58°36' E 016°13'0 0.0
2016-Aug-29 21:31N 58°36' E 016°13'0 0.0
2016-Aug-29 20:31N 58°36' E 016°13'0 0.0
2016-Aug-29 19:31N 58°36' E 016°13'0 0.0
2016-Aug-29 18:31N 58°36' E 016°13'0 0.0
2016-Aug-29 17:31N 58°36' E 016°13'0 0.0
2016-Aug-29 16:31N 58°36' E 016°13'0 0.0
2016-Aug-29 15:30N 58°36' E 016°13'0 0.0
2016-Aug-29 14:33N 58°36' E 016°13'0 0.0
2016-Aug-29 13:33N 58°36' E 016°13'0 0.0
2016-Aug-29 12:33N 58°36' E 016°13'0 0.0
2016-Aug-29 11:33N 58°36' E 016°13'0 0.0
2016-Aug-29 10:33N 58°36' E 016°13'0 0.0
2016-Aug-29 09:33N 58°36' E 016°13'0 0.0
2016-Aug-29 08:33N 58°36' E 016°13'0 0.0
2016-Aug-29 07:30N 58°36' E 016°13'0 0.0
2016-Aug-29 06:33N 58°36' E 016°13'0 0.0
2016-Aug-29 05:33N 58°36' E 016°13'0 0.0
2016-Aug-29 04:33N 58°36' E 016°13'0 0.0
2016-Aug-29 03:33N 58°36' E 016°13'0 0.0
2016-Aug-29 02:33N 58°36' E 016°13'0 0.0
2016-Aug-29 01:33N 58°36' E 016°13'0 0.0
2016-Aug-29 00:33N 58°36' E 016°13'0 0.0
2016-Aug-28 23:33N 58°36' E 016°13'0 0.0
2016-Aug-28 22:33N 58°36' E 016°13'0 0.0
2016-Aug-28 21:33N 58°36' E 016°13'0 0.0
2016-Aug-28 20:33N 58°36' E 016°13'0 0.0
2016-Aug-28 19:33N 58°36' E 016°13'0 0.0
2016-Aug-28 18:33N 58°36' E 016°13'0 0.0
2016-Aug-28 17:33N 58°36' E 016°13'0 0.0
2016-Aug-28 16:33N 58°36' E 016°13'0 0.0
2016-Aug-28 15:33N 58°36' E 016°13'0 0.0
2016-Aug-28 14:33N 58°36' E 016°13'0 0.0
2016-Aug-28 13:33N 58°36' E 016°13'0 0.0
2016-Aug-28 12:33N 58°36' E 016°13'0 0.1
2016-Aug-28 11:33N 58°36' E 016°13'5 4.7
2016-Aug-28 10:33N 58°38' E 016°20'8 8.4
2016-Aug-28 09:33N 58°38' E 016°36'9 9.3
2016-Aug-28 08:33N 58°36' E 016°54'9 9.2
2016-Aug-28 07:33N 58°37' E 017°12'9 9.2
2016-Aug-28 06:33N 58°37' E 017°29'153 4.8
2016-Aug-26 22:27N 56°10' E 018°53'82 2.3
2016-Aug-25 11:33N 55°40' E 021°09'6 6.3
2016-Aug-25 10:33N 55°44' E 020°60'9 8.8
2016-Aug-25 09:33N 55°44' E 020°44'9 9.1
2016-Aug-25 08:33N 55°44' E 020°28'9 9.3
2016-Aug-25 07:33N 55°43' E 020°11'1010.2
2016-Aug-25 06:33N 55°42' E 019°53'2010.1
2016-Aug-25 04:33N 55°40' E 019°18'1010.1
2016-Aug-25 03:33N 55°38' E 018°60'1010.2
2016-Aug-25 02:34N 55°37' E 018°42'1010.0
2016-Aug-25 01:33N 55°37' E 018°24'1010.2
2016-Aug-25 00:33N 55°36' E 018°06'1110.5
2016-Aug-24 23:33N 55°34' E 017°48'1010.1
2016-Aug-24 22:33N 55°33' E 017°30'10 9.9
2016-Aug-24 21:34N 55°32' E 017°13'10 9.9
2016-Aug-24 20:33N 55°31' E 016°55'10 9.9
2016-Aug-24 19:33N 55°30' E 016°38'10 9.7
2016-Aug-24 18:33N 55°28' E 016°21'1010.0
2016-Aug-24 17:33N 55°27' E 016°03'1110.4
2016-Aug-24 16:33N 55°26' E 015°45'1010.4
2016-Aug-24 15:33N 55°26' E 015°27'1010.1
2016-Aug-24 14:33N 55°25' E 015°09'1010.1
2016-Aug-24 13:33N 55°23' E 014°51'10 9.8
2016-Aug-24 12:33N 55°20' E 014°35'1010.0
2016-Aug-24 11:33N 55°13' E 014°23'10 9.7
2016-Aug-24 10:33N 55°11' E 014°06'1010.3
2016-Aug-24 09:33N 55°12' E 013°48'1010.0
2016-Aug-24 08:33N 55°13' E 013°31'10 9.9
2016-Aug-24 07:33N 55°14' E 013°13'10 9.9
2016-Aug-24 06:33N 55°15' E 012°56'15 7.4
2016-Aug-24 04:33N 55°27' E 012°40'10 9.7
2016-Aug-24 03:34N 55°36' E 012°42'10 9.6
2016-Aug-24 02:34N 55°46' E 012°41'9 9.5
2016-Aug-24 01:33N 55°55' E 012°38'9 8.8
2016-Aug-24 00:33N 56°04' E 012°37'8 8.3
2016-Aug-23 23:33N 56°10' E 012°27'9 8.9
2016-Aug-23 22:33N 56°19' E 012°22'9 9.4
2016-Aug-23 21:33N 56°28' E 012°23'9 9.1
2016-Aug-23 20:33N 56°37' E 012°25'10 9.5
2016-Aug-23 19:33N 56°47' E 012°26'7 7.0
2016-Aug-23 18:33N 56°53' E 012°29'0 0.1
2016-Aug-23 17:28N 56°53' E 012°29'0 0.0
2016-Aug-23 16:28N 56°53' E 012°29'0 0.0
2016-Aug-23 15:22N 56°53' E 012°29'0 0.0
2016-Aug-23 14:28N 56°53' E 012°29'0 0.0
2016-Aug-23 13:28N 56°53' E 012°29'0 0.0
2016-Aug-23 12:28N 56°53' E 012°29'0 0.0
2016-Aug-23 11:28N 56°53' E 012°29'0 0.0
2016-Aug-23 10:28N 56°53' E 012°29'0 0.0
2016-Aug-23 09:28N 56°53' E 012°29'0 0.0
2016-Aug-23 08:28N 56°53' E 012°29'0 0.0
2016-Aug-23 07:28N 56°53' E 012°29'0 0.0
2016-Aug-23 06:28N 56°53' E 012°29'0 0.0
2016-Aug-23 05:22N 56°53' E 012°29'0 0.0
2016-Aug-23 04:28N 56°53' E 012°29'0 0.0
2016-Aug-23 03:22N 56°53' E 012°29'0 0.0
2016-Aug-23 02:28N 56°53' E 012°29'0 0.0
2016-Aug-23 01:28N 56°53' E 012°29'0 0.0
2016-Aug-23 00:28N 56°53' E 012°29'0 0.0
2016-Aug-22 23:28N 56°53' E 012°29'0 0.0
2016-Aug-22 22:28N 56°53' E 012°29'0 0.0
2016-Aug-22 21:22N 56°53' E 012°29'0 0.0
2016-Aug-22 20:16N 56°53' E 012°29'0 0.0
2016-Aug-22 19:28N 56°53' E 012°29'0 0.0
2016-Aug-22 18:28N 56°53' E 012°29'0 0.0
2016-Aug-22 17:28N 56°53' E 012°29'0 0.0
2016-Aug-22 16:28N 56°53' E 012°29'0 0.0
2016-Aug-22 15:34N 56°53' E 012°29'0 0.0
2016-Aug-22 14:22N 56°53' E 012°29'0 0.0
2016-Aug-22 13:33N 56°53' E 012°29'0 0.0
2016-Aug-22 12:33N 56°53' E 012°29'0 0.0
2016-Aug-22 11:33N 56°53' E 012°29'0 0.0
2016-Aug-22 10:33N 56°53' E 012°29'0 0.0
2016-Aug-22 09:33N 56°53' E 012°29'0 0.0
2016-Aug-22 08:33N 56°53' E 012°29'1 0.9
2016-Aug-22 07:33N 56°53' E 012°28'3 2.6
2016-Aug-22 06:31N 56°51' E 012°24'0 0.0
2016-Aug-22 05:31N 56°51' E 012°24'0 0.0
2016-Aug-22 04:31N 56°51' E 012°24'0 0.0
2016-Aug-22 03:31N 56°51' E 012°24'0 0.0
2016-Aug-22 02:31N 56°51' E 012°24'0 0.0
2016-Aug-22 01:25N 56°51' E 012°24'0 0.0
2016-Aug-22 00:31N 56°51' E 012°24'0 0.0
2016-Aug-21 23:31N 56°51' E 012°24'0 0.0
2016-Aug-21 22:19N 56°51' E 012°24'0 0.0
2016-Aug-21 21:31N 56°51' E 012°24'0 0.0
2016-Aug-21 20:31N 56°51' E 012°24'0 0.0
2016-Aug-21 19:31N 56°51' E 012°24'6 6.7
2016-Aug-21 18:33N 56°45' E 012°25'1010.1
2016-Aug-21 17:33N 56°35' E 012°25'1110.6
2016-Aug-21 16:33N 56°24' E 012°24'1110.6
2016-Aug-21 15:34N 56°14' E 012°28'1111.3
2016-Aug-21 14:34N 56°04' E 012°38'1010.0
2016-Aug-21 13:34N 55°55' E 012°44'10 9.8
2016-Aug-21 12:34N 55°45' E 012°42'10 9.8
2016-Aug-21 11:34N 55°35' E 012°42'9 9.1
2016-Aug-21 10:34N 55°26' E 012°42'8 8.3
2016-Aug-21 09:33N 55°18' E 012°45'9 9.4
2016-Aug-21 08:33N 55°16' E 013°01'9 9.3
2016-Aug-21 07:33N 55°15' E 013°18'10 9.6
2016-Aug-21 06:33N 55°15' E 013°35'10 9.5
2016-Aug-21 05:33N 55°14' E 013°51'9 9.5
2016-Aug-21 04:33N 55°14' E 014°08'9 8.9
2016-Aug-21 03:33N 55°18' E 014°22'10 9.8
2016-Aug-21 02:33N 55°25' E 014°34'9 9.1
2016-Aug-21 01:34N 55°27' E 014°50'10 9.6
2016-Aug-21 00:33N 55°28' E 015°07'10 9.6
2016-Aug-20 23:33N 55°29' E 015°24'10 9.5
2016-Aug-20 22:33N 55°29' E 015°40'9 9.1
2016-Aug-20 21:31N 55°30' E 015°57'26 8.7
2016-Aug-20 18:33N 55°32' E 016°42'9 8.9
2016-Aug-20 17:34N 55°33' E 016°58'9 8.9
2016-Aug-20 16:34N 55°34' E 017°14'9 9.1
2016-Aug-20 15:33N 55°35' E 017°30'9 9.0
2016-Aug-20 14:33N 55°36' E 017°46'9 9.0
2016-Aug-20 13:33N 55°37' E 018°02'9 8.9
2016-Aug-20 12:34N 55°37' E 018°17'9 9.2
2016-Aug-20 11:33N 55°38' E 018°34'9 9.1
2016-Aug-20 10:33N 55°39' E 018°50'  
Track history (hours):
 
Tides and Currents Weather Stations Pressure Air Temp Water Temp Dewpoint Dewpoint Depression Visibility Wind Speed Wind Dir Waves Ship Positions

Vingaren

Last reported at 2016-Aug-30 10:31 UTC. Time now 2016-Aug-30 10:54 UTC.
Position N 58°36' E 016°13'.

Length 89 m; draft 6.3 m.

Type: Cargo ship. MMSI: 231844000.

Date/timePositionNaut miles runAvg speedWind from/ knotsBaromVisibWave heightAir tempDewpointWater temp
2016-Aug-30 10:31N 58°36' E 016°13'0 0.0
2016-Aug-30 09:31N 58°36' E 016°13'0 0.0
2016-Aug-30 08:31N 58°36' E 016°13'0 0.0
2016-Aug-30 07:31N 58°36' E 016°13'0 0.0
2016-Aug-30 06:31N 58°36' E 016°13'0 0.0
2016-Aug-30 05:31N 58°36' E 016°13'0 0.0
2016-Aug-30 04:31N 58°36' E 016°13'0 0.0
2016-Aug-30 03:31N 58°36' E 016°13'0 0.0
2016-Aug-30 02:31N 58°36' E 016°13'0 0.0
2016-Aug-30 01:31N 58°36' E 016°13'0 0.0
2016-Aug-30 00:31N 58°36' E 016°13'0 0.0
2016-Aug-29 23:31N 58°36' E 016°13'0 0.0
2016-Aug-29 22:31N 58°36' E 016°13'0 0.0
2016-Aug-29 21:31N 58°36' E 016°13'0 0.0
2016-Aug-29 20:31N 58°36' E 016°13'0 0.0
2016-Aug-29 19:31N 58°36' E 016°13'0 0.0
2016-Aug-29 18:31N 58°36' E 016°13'0 0.0
2016-Aug-29 17:31N 58°36' E 016°13'0 0.0
2016-Aug-29 16:31N 58°36' E 016°13'0 0.0
2016-Aug-29 15:30N 58°36' E 016°13'0 0.0
2016-Aug-29 14:33N 58°36' E 016°13'0 0.0
2016-Aug-29 13:33N 58°36' E 016°13'0 0.0
2016-Aug-29 12:33N 58°36' E 016°13'0 0.0
2016-Aug-29 11:33N 58°36' E 016°13'0 0.0
2016-Aug-29 10:33N 58°36' E 016°13'0 0.0
2016-Aug-29 09:33N 58°36' E 016°13'0 0.0
2016-Aug-29 08:33N 58°36' E 016°13'0 0.0
2016-Aug-29 07:30N 58°36' E 016°13'0 0.0
2016-Aug-29 06:33N 58°36' E 016°13'0 0.0
2016-Aug-29 05:33N 58°36' E 016°13'0 0.0
2016-Aug-29 04:33N 58°36' E 016°13'0 0.0
2016-Aug-29 03:33N 58°36' E 016°13'0 0.0
2016-Aug-29 02:33N 58°36' E 016°13'0 0.0
2016-Aug-29 01:33N 58°36' E 016°13'0 0.0
2016-Aug-29 00:33N 58°36' E 016°13'0 0.0
2016-Aug-28 23:33N 58°36' E 016°13'0 0.0
2016-Aug-28 22:33N 58°36' E 016°13'0 0.0
2016-Aug-28 21:33N 58°36' E 016°13'0 0.0
2016-Aug-28 20:33N 58°36' E 016°13'0 0.0
2016-Aug-28 19:33N 58°36' E 016°13'0 0.0
2016-Aug-28 18:33N 58°36' E 016°13'0 0.0
2016-Aug-28 17:33N 58°36' E 016°13'0 0.0
2016-Aug-28 16:33N 58°36' E 016°13'0 0.0
2016-Aug-28 15:33N 58°36' E 016°13'0 0.0
2016-Aug-28 14:33N 58°36' E 016°13'0 0.0
2016-Aug-28 13:33N 58°36' E 016°13'0 0.0
2016-Aug-28 12:33N 58°36' E 016°13'0 0.1
2016-Aug-28 11:33N 58°36' E 016°13'5 4.7
2016-Aug-28 10:33N 58°38' E 016°20'8 8.4
2016-Aug-28 09:33N 58°38' E 016°36'9 9.3
2016-Aug-28 08:33N 58°36' E 016°54'9 9.2
2016-Aug-28 07:33N 58°37' E 017°12'9 9.2
2016-Aug-28 06:33N 58°37' E 017°29'153 4.8
2016-Aug-26 22:27N 56°10' E 018°53'82 2.3
2016-Aug-25 11:33N 55°40' E 021°09'6 6.3
2016-Aug-25 10:33N 55°44' E 020°60'9 8.8
2016-Aug-25 09:33N 55°44' E 020°44'9 9.1
2016-Aug-25 08:33N 55°44' E 020°28'9 9.3
2016-Aug-25 07:33N 55°43' E 020°11'1010.2
2016-Aug-25 06:33N 55°42' E 019°53'2010.1
2016-Aug-25 04:33N 55°40' E 019°18'1010.1
2016-Aug-25 03:33N 55°38' E 018°60'1010.2
2016-Aug-25 02:34N 55°37' E 018°42'1010.0
2016-Aug-25 01:33N 55°37' E 018°24'1010.2
2016-Aug-25 00:33N 55°36' E 018°06'1110.5
2016-Aug-24 23:33N 55°34' E 017°48'1010.1
2016-Aug-24 22:33N 55°33' E 017°30'10 9.9
2016-Aug-24 21:34N 55°32' E 017°13'10 9.9
2016-Aug-24 20:33N 55°31' E 016°55'10 9.9
2016-Aug-24 19:33N 55°30' E 016°38'10 9.7
2016-Aug-24 18:33N 55°28' E 016°21'1010.0
2016-Aug-24 17:33N 55°27' E 016°03'1110.4
2016-Aug-24 16:33N 55°26' E 015°45'1010.4
2016-Aug-24 15:33N 55°26' E 015°27'1010.1
2016-Aug-24 14:33N 55°25' E 015°09'1010.1
2016-Aug-24 13:33N 55°23' E 014°51'10 9.8
2016-Aug-24 12:33N 55°20' E 014°35'1010.0
2016-Aug-24 11:33N 55°13' E 014°23'10 9.7
2016-Aug-24 10:33N 55°11' E 014°06'1010.3
2016-Aug-24 09:33N 55°12' E 013°48'1010.0
2016-Aug-24 08:33N 55°13' E 013°31'10 9.9
2016-Aug-24 07:33N 55°14' E 013°13'10 9.9
2016-Aug-24 06:33N 55°15' E 012°56'15 7.4
2016-Aug-24 04:33N 55°27' E 012°40'10 9.7
2016-Aug-24 03:34N 55°36' E 012°42'10 9.6
2016-Aug-24 02:34N 55°46' E 012°41'9 9.5
2016-Aug-24 01:33N 55°55' E 012°38'9 8.8
2016-Aug-24 00:33N 56°04' E 012°37'8 8.3
2016-Aug-23 23:33N 56°10' E 012°27'9 8.9
2016-Aug-23 22:33N 56°19' E 012°22'9 9.4
2016-Aug-23 21:33N 56°28' E 012°23'9 9.1
2016-Aug-23 20:33N 56°37' E 012°25'10 9.5
2016-Aug-23 19:33N 56°47' E 012°26'7 7.0
2016-Aug-23 18:33N 56°53' E 012°29'0 0.1
2016-Aug-23 17:28N 56°53' E 012°29'0 0.0
2016-Aug-23 16:28N 56°53' E 012°29'0 0.0
2016-Aug-23 15:22N 56°53' E 012°29'0 0.0
2016-Aug-23 14:28N 56°53' E 012°29'0 0.0
2016-Aug-23 13:28N 56°53' E 012°29'0 0.0
2016-Aug-23 12:28N 56°53' E 012°29'0 0.0
2016-Aug-23 11:28N 56°53' E 012°29'0 0.0
2016-Aug-23 10:28N 56°53' E 012°29'0 0.0
2016-Aug-23 09:28N 56°53' E 012°29'0 0.0
2016-Aug-23 08:28N 56°53' E 012°29'0 0.0
2016-Aug-23 07:28N 56°53' E 012°29'0 0.0
2016-Aug-23 06:28N 56°53' E 012°29'0 0.0
2016-Aug-23 05:22N 56°53' E 012°29'0 0.0
2016-Aug-23 04:28N 56°53' E 012°29'0 0.0
2016-Aug-23 03:22N 56°53' E 012°29'0 0.0
2016-Aug-23 02:28N 56°53' E 012°29'0 0.0
2016-Aug-23 01:28N 56°53' E 012°29'0 0.0
2016-Aug-23 00:28N 56°53' E 012°29'0 0.0
2016-Aug-22 23:28N 56°53' E 012°29'0 0.0
2016-Aug-22 22:28N 56°53' E 012°29'0 0.0
2016-Aug-22 21:22N 56°53' E 012°29'0 0.0
2016-Aug-22 20:16N 56°53' E 012°29'0 0.0
2016-Aug-22 19:28N 56°53' E 012°29'0 0.0
2016-Aug-22 18:28N 56°53' E 012°29'0 0.0
2016-Aug-22 17:28N 56°53' E 012°29'0 0.0
2016-Aug-22 16:28N 56°53' E 012°29'0 0.0
2016-Aug-22 15:34N 56°53' E 012°29'0 0.0
2016-Aug-22 14:22N 56°53' E 012°29'0 0.0
2016-Aug-22 13:33N 56°53' E 012°29'0 0.0
2016-Aug-22 12:33N 56°53' E 012°29'0 0.0
2016-Aug-22 11:33N 56°53' E 012°29'0 0.0
2016-Aug-22 10:33N 56°53' E 012°29'0 0.0
2016-Aug-22 09:33N 56°53' E 012°29'0 0.0
2016-Aug-22 08:33N 56°53' E 012°29'1 0.9
2016-Aug-22 07:33N 56°53' E 012°28'3 2.6
2016-Aug-22 06:31N 56°51' E 012°24'0 0.0
2016-Aug-22 05:31N 56°51' E 012°24'0 0.0
2016-Aug-22 04:31N 56°51' E 012°24'0 0.0
2016-Aug-22 03:31N 56°51' E 012°24'0 0.0
2016-Aug-22 02:31N 56°51' E 012°24'0 0.0
2016-Aug-22 01:25N 56°51' E 012°24'0 0.0
2016-Aug-22 00:31N 56°51' E 012°24'0 0.0
2016-Aug-21 23:31N 56°51' E 012°24'0 0.0
2016-Aug-21 22:19N 56°51' E 012°24'0 0.0
2016-Aug-21 21:31N 56°51' E 012°24'0 0.0
2016-Aug-21 20:31N 56°51' E 012°24'0 0.0
2016-Aug-21 19:31N 56°51' E 012°24'6 6.7
2016-Aug-21 18:33N 56°45' E 012°25'1010.1
2016-Aug-21 17:33N 56°35' E 012°25'1110.6
2016-Aug-21 16:33N 56°24' E 012°24'1110.6
2016-Aug-21 15:34N 56°14' E 012°28'1111.3
2016-Aug-21 14:34N 56°04' E 012°38'1010.0
2016-Aug-21 13:34N 55°55' E 012°44'10 9.8
2016-Aug-21 12:34N 55°45' E 012°42'10 9.8
2016-Aug-21 11:34N 55°35' E 012°42'9 9.1
2016-Aug-21 10:34N 55°26' E 012°42'8 8.3
2016-Aug-21 09:33N 55°18' E 012°45'9 9.4
2016-Aug-21 08:33N 55°16' E 013°01'9 9.3
2016-Aug-21 07:33N 55°15' E 013°18'10 9.6
2016-Aug-21 06:33N 55°15' E 013°35'10 9.5
2016-Aug-21 05:33N 55°14' E 013°51'9 9.5
2016-Aug-21 04:33N 55°14' E 014°08'9 8.9
2016-Aug-21 03:33N 55°18' E 014°22'10 9.8
2016-Aug-21 02:33N 55°25' E 014°34'9 9.1
2016-Aug-21 01:34N 55°27' E 014°50'10 9.6
2016-Aug-21 00:33N 55°28' E 015°07'10 9.6
2016-Aug-20 23:33N 55°29' E 015°24'10 9.5
2016-Aug-20 22:33N 55°29' E 015°40'9 9.1
2016-Aug-20 21:31N 55°30' E 015°57'26 8.7
2016-Aug-20 18:33N 55°32' E 016°42'9 8.9
2016-Aug-20 17:34N 55°33' E 016°58'9 8.9
2016-Aug-20 16:34N 55°34' E 017°14'9 9.1
2016-Aug-20 15:33N 55°35' E 017°30'9 9.0
2016-Aug-20 14:33N 55°36' E 017°46'9 9.0
2016-Aug-20 13:33N 55°37' E 018°02'9 8.9
2016-Aug-20 12:34N 55°37' E 018°17'9 9.2
2016-Aug-20 11:33N 55°38' E 018°34'9 9.1
2016-Aug-20 10:33N 55°39' E 018°50'  

Dump ship's entire track history